sensor_id;sensor_type;location;lat;lon;timestamp;P1;durP1;ratioP1;P2;durP2;ratioP2
27039;SDS011;14589;51.578;7.306;2022-11-11T00:03:30;6.50;;;2.13;;
27039;SDS011;14589;51.578;7.306;2022-11-11T00:06:21;4.00;;;1.73;;
27039;SDS011;14589;51.578;7.306;2022-11-11T00:09:08;6.05;;;1.48;;
27039;SDS011;14589;51.578;7.306;2022-11-11T00:11:52;6.13;;;2.22;;
27039;SDS011;14589;51.578;7.306;2022-11-11T00:14:42;2.90;;;1.60;;
27039;SDS011;14589;51.578;7.306;2022-11-11T00:17:46;6.00;;;2.25;;
27039;SDS011;14589;51.578;7.306;2022-11-11T00:20:50;5.50;;;1.67;;
27039;SDS011;14589;51.578;7.306;2022-11-11T00:23:56;7.40;;;1.95;;
27039;SDS011;14589;51.578;7.306;2022-11-11T00:27:04;7.65;;;2.00;;
27039;SDS011;14589;51.578;7.306;2022-11-11T00:29:49;6.50;;;1.90;;
27039;SDS011;14589;51.578;7.306;2022-11-11T00:32:33;6.68;;;1.90;;
27039;SDS011;14589;51.578;7.306;2022-11-11T00:35:17;9.40;;;1.60;;
27039;SDS011;14589;51.578;7.306;2022-11-11T00:41:31;6.45;;;1.73;;
27039;SDS011;14589;51.578;7.306;2022-11-11T00:44:16;5.70;;;2.22;;
27039;SDS011;14589;51.578;7.306;2022-11-11T00:47:00;4.40;;;1.60;;
27039;SDS011;14589;51.578;7.306;2022-11-11T00:50:05;7.32;;;2.35;;
27039;SDS011;14589;51.578;7.306;2022-11-11T00:53:12;4.90;;;1.80;;
27039;SDS011;14589;51.578;7.306;2022-11-11T00:56:00;4.72;;;2.00;;
27039;SDS011;14589;51.578;7.306;2022-11-11T00:58:44;3.85;;;1.70;;
27039;SDS011;14589;51.578;7.306;2022-11-11T01:01:28;5.57;;;2.20;;
27039;SDS011;14589;51.578;7.306;2022-11-11T01:04:12;5.03;;;1.50;;
27039;SDS011;14589;51.578;7.306;2022-11-11T01:06:56;5.43;;;2.10;;
27039;SDS011;14589;51.578;7.306;2022-11-11T01:09:40;6.30;;;2.30;;
27039;SDS011;14589;51.578;7.306;2022-11-11T01:12:24;11.23;;;2.10;;
27039;SDS011;14589;51.578;7.306;2022-11-11T01:15:08;3.75;;;1.73;;
27039;SDS011;14589;51.578;7.306;2022-11-11T01:17:52;5.57;;;2.00;;
27039;SDS011;14589;51.578;7.306;2022-11-11T01:20:38;7.38;;;2.17;;
27039;SDS011;14589;51.578;7.306;2022-11-11T01:23:25;8.02;;;2.10;;
27039;SDS011;14589;51.578;7.306;2022-11-11T01:26:17;7.20;;;1.88;;
27039;SDS011;14589;51.578;7.306;2022-11-11T01:29:04;7.30;;;2.38;;
27039;SDS011;14589;51.578;7.306;2022-11-11T01:31:51;6.65;;;2.13;;
27039;SDS011;14589;51.578;7.306;2022-11-11T01:34:36;5.20;;;1.98;;
27039;SDS011;14589;51.578;7.306;2022-11-11T01:37:20;7.35;;;1.80;;
27039;SDS011;14589;51.578;7.306;2022-11-11T01:40:04;7.13;;;2.35;;
27039;SDS011;14589;51.578;7.306;2022-11-11T01:43:33;5.78;;;2.25;;
27039;SDS011;14589;51.578;7.306;2022-11-11T01:46:00;7.53;;;2.08;;
27039;SDS011;14589;51.578;7.306;2022-11-11T01:48:47;4.38;;;2.08;;
27039;SDS011;14589;51.578;7.306;2022-11-11T01:55:14;4.68;;;1.90;;
27039;SDS011;14589;51.578;7.306;2022-11-11T01:58:06;4.18;;;1.80;;
27039;SDS011;14589;51.578;7.306;2022-11-11T02:00:52;4.18;;;1.70;;
27039;SDS011;14589;51.578;7.306;2022-11-11T02:03:38;5.53;;;1.90;;
27039;SDS011;14589;51.578;7.306;2022-11-11T02:06:23;7.40;;;2.13;;
27039;SDS011;14589;51.578;7.306;2022-11-11T02:09:07;5.75;;;3.22;;
27039;SDS011;14589;51.578;7.306;2022-11-11T02:11:56;5.70;;;1.92;;
27039;SDS011;14589;51.578;7.306;2022-11-11T02:15:01;6.05;;;2.08;;
27039;SDS011;14589;51.578;7.306;2022-11-11T02:17:50;4.65;;;1.95;;
27039;SDS011;14589;51.578;7.306;2022-11-11T02:20:38;4.55;;;1.88;;
27039;SDS011;14589;51.578;7.306;2022-11-11T02:23:27;3.60;;;1.60;;
27039;SDS011;14589;51.578;7.306;2022-11-11T02:26:19;4.38;;;1.48;;
27039;SDS011;14589;51.578;7.306;2022-11-11T02:29:06;6.28;;;1.85;;
27039;SDS011;14589;51.578;7.306;2022-11-11T02:31:53;4.63;;;1.70;;
27039;SDS011;14589;51.578;7.306;2022-11-11T02:37:24;6.35;;;1.80;;
27039;SDS011;14589;51.578;7.306;2022-11-11T02:40:11;3.78;;;1.50;;
27039;SDS011;14589;51.578;7.306;2022-11-11T02:42:57;8.18;;;1.95;;
27039;SDS011;14589;51.578;7.306;2022-11-11T02:48:30;7.82;;;1.80;;
27039;SDS011;14589;51.578;7.306;2022-11-11T02:53:58;8.98;;;1.90;;
27039;SDS011;14589;51.578;7.306;2022-11-11T02:56:42;3.65;;;1.55;;
27039;SDS011;14589;51.578;7.306;2022-11-11T03:02:32;5.00;;;1.73;;
27039;SDS011;14589;51.578;7.306;2022-11-11T03:08:01;5.97;;;1.80;;
27039;SDS011;14589;51.578;7.306;2022-11-11T03:10:46;6.60;;;1.58;;
27039;SDS011;14589;51.578;7.306;2022-11-11T03:13:30;8.90;;;1.70;;
27039;SDS011;14589;51.578;7.306;2022-11-11T03:16:16;6.57;;;1.90;;
27039;SDS011;14589;51.578;7.306;2022-11-11T03:19:19;4.00;;;1.60;;
27039;SDS011;14589;51.578;7.306;2022-11-11T03:22:07;5.07;;;1.73;;
27039;SDS011;14589;51.578;7.306;2022-11-11T03:24:51;4.97;;;1.75;;
27039;SDS011;14589;51.578;7.306;2022-11-11T03:27:54;4.18;;;1.60;;
27039;SDS011;14589;51.578;7.306;2022-11-11T03:30:39;8.65;;;2.30;;
27039;SDS011;14589;51.578;7.306;2022-11-11T03:33:25;5.13;;;1.58;;
27039;SDS011;14589;51.578;7.306;2022-11-11T03:36:11;7.35;;;1.70;;
27039;SDS011;14589;51.578;7.306;2022-11-11T03:38:58;4.10;;;1.95;;
27039;SDS011;14589;51.578;7.306;2022-11-11T03:44:31;4.03;;;1.55;;
27039;SDS011;14589;51.578;7.306;2022-11-11T03:47:16;2.75;;;1.73;;
27039;SDS011;14589;51.578;7.306;2022-11-11T03:50:02;4.30;;;1.63;;
27039;SDS011;14589;51.578;7.306;2022-11-11T03:52:49;3.80;;;1.70;;
27039;SDS011;14589;51.578;7.306;2022-11-11T03:55:33;3.55;;;1.30;;
27039;SDS011;14589;51.578;7.306;2022-11-11T03:58:24;6.93;;;1.90;;
27039;SDS011;14589;51.578;7.306;2022-11-11T04:01:09;4.53;;;1.73;;
27039;SDS011;14589;51.578;7.306;2022-11-11T04:04:18;3.83;;;1.77;;
27039;SDS011;14589;51.578;7.306;2022-11-11T04:07:23;3.75;;;1.60;;
27039;SDS011;14589;51.578;7.306;2022-11-11T04:10:27;1.77;;;1.48;;
27039;SDS011;14589;51.578;7.306;2022-11-11T04:13:12;3.72;;;1.75;;
27039;SDS011;14589;51.578;7.306;2022-11-11T04:16:15;4.80;;;1.90;;
27039;SDS011;14589;51.578;7.306;2022-11-11T04:18:59;2.60;;;1.70;;
27039;SDS011;14589;51.578;7.306;2022-11-11T04:22:02;5.63;;;2.00;;
27039;SDS011;14589;51.578;7.306;2022-11-11T04:24:46;10.18;;;1.90;;
27039;SDS011;14589;51.578;7.306;2022-11-11T04:27:50;3.58;;;1.80;;
27039;SDS011;14589;51.578;7.306;2022-11-11T04:30:55;4.97;;;1.77;;
27039;SDS011;14589;51.578;7.306;2022-11-11T04:33:39;6.85;;;1.77;;
27039;SDS011;14589;51.578;7.306;2022-11-11T04:36:23;5.78;;;2.20;;
27039;SDS011;14589;51.578;7.306;2022-11-11T04:39:07;3.67;;;2.00;;
27039;SDS011;14589;51.578;7.306;2022-11-11T04:42:11;4.40;;;1.90;;
27039;SDS011;14589;51.578;7.306;2022-11-11T04:45:01;7.07;;;2.33;;
27039;SDS011;14589;51.578;7.306;2022-11-11T04:48:08;6.85;;;2.00;;
27039;SDS011;14589;51.578;7.306;2022-11-11T04:50:53;3.38;;;1.65;;
27039;SDS011;14589;51.578;7.306;2022-11-11T04:53:37;5.38;;;1.92;;
27039;SDS011;14589;51.578;7.306;2022-11-11T04:56:21;4.22;;;1.73;;
27039;SDS011;14589;51.578;7.306;2022-11-11T04:59:25;3.25;;;1.80;;
27039;SDS011;14589;51.578;7.306;2022-11-11T05:08:42;4.93;;;1.67;;
27039;SDS011;14589;51.578;7.306;2022-11-11T05:11:46;3.65;;;1.50;;
27039;SDS011;14589;51.578;7.306;2022-11-11T05:14:31;6.53;;;1.65;;
27039;SDS011;14589;51.578;7.306;2022-11-11T05:17:34;3.45;;;1.60;;
27039;SDS011;14589;51.578;7.306;2022-11-11T05:20:37;3.85;;;1.77;;
27039;SDS011;14589;51.578;7.306;2022-11-11T05:23:40;4.32;;;1.98;;
27039;SDS011;14589;51.578;7.306;2022-11-11T05:26:43;2.40;;;1.63;;
27039;SDS011;14589;51.578;7.306;2022-11-11T05:29:27;4.25;;;1.75;;
27039;SDS011;14589;51.578;7.306;2022-11-11T05:32:21;2.80;;;1.25;;
27039;SDS011;14589;51.578;7.306;2022-11-11T05:35:06;10.48;;;1.73;;
27039;SDS011;14589;51.578;7.306;2022-11-11T05:37:52;1.77;;;1.10;;
27039;SDS011;14589;51.578;7.306;2022-11-11T05:40:55;7.45;;;1.40;;
27039;SDS011;14589;51.578;7.306;2022-11-11T05:43:39;4.75;;;1.40;;
27039;SDS011;14589;51.578;7.306;2022-11-11T05:46:23;3.80;;;1.33;;
27039;SDS011;14589;51.578;7.306;2022-11-11T05:49:07;6.22;;;1.60;;
27039;SDS011;14589;51.578;7.306;2022-11-11T05:51:57;3.50;;;1.27;;
27039;SDS011;14589;51.578;7.306;2022-11-11T05:54:44;2.30;;;1.30;;
27039;SDS011;14589;51.578;7.306;2022-11-11T05:57:33;6.97;;;1.55;;
27039;SDS011;14589;51.578;7.306;2022-11-11T06:00:19;5.05;;;1.52;;
27039;SDS011;14589;51.578;7.306;2022-11-11T06:03:03;2.80;;;1.42;;
27039;SDS011;14589;51.578;7.306;2022-11-11T06:05:51;5.03;;;1.55;;
27039;SDS011;14589;51.578;7.306;2022-11-11T06:08:38;4.22;;;1.42;;
27039;SDS011;14589;51.578;7.306;2022-11-11T06:11:24;6.70;;;1.70;;
27039;SDS011;14589;51.578;7.306;2022-11-11T06:14:13;2.78;;;1.58;;
27039;SDS011;14589;51.578;7.306;2022-11-11T06:16:57;6.85;;;1.80;;
27039;SDS011;14589;51.578;7.306;2022-11-11T06:19:42;4.45;;;1.60;;
27039;SDS011;14589;51.578;7.306;2022-11-11T06:22:26;1.83;;;1.13;;
27039;SDS011;14589;51.578;7.306;2022-11-11T06:25:54;3.92;;;1.30;;
27039;SDS011;14589;51.578;7.306;2022-11-11T06:28:57;3.40;;;1.10;;
27039;SDS011;14589;51.578;7.306;2022-11-11T06:31:41;3.40;;;1.33;;
27039;SDS011;14589;51.578;7.306;2022-11-11T06:37:13;2.47;;;1.20;;
27039;SDS011;14589;51.578;7.306;2022-11-11T06:40:00;2.35;;;1.15;;
27039;SDS011;14589;51.578;7.306;2022-11-11T06:42:46;2.83;;;1.33;;
27039;SDS011;14589;51.578;7.306;2022-11-11T06:45:30;2.75;;;1.42;;
27039;SDS011;14589;51.578;7.306;2022-11-11T06:48:21;2.83;;;1.27;;
27039;SDS011;14589;51.578;7.306;2022-11-11T06:51:06;4.97;;;1.83;;
27039;SDS011;14589;51.578;7.306;2022-11-11T06:53:50;9.55;;;2.42;;
27039;SDS011;14589;51.578;7.306;2022-11-11T06:56:34;5.55;;;2.17;;
27039;SDS011;14589;51.578;7.306;2022-11-11T06:59:18;3.53;;;1.77;;
27039;SDS011;14589;51.578;7.306;2022-11-11T07:05:04;6.00;;;1.80;;
27039;SDS011;14589;51.578;7.306;2022-11-11T07:07:51;3.10;;;1.77;;
27039;SDS011;14589;51.578;7.306;2022-11-11T07:10:35;5.57;;;1.95;;
27039;SDS011;14589;51.578;7.306;2022-11-11T07:13:21;4.80;;;2.20;;
27039;SDS011;14589;51.578;7.306;2022-11-11T07:16:10;6.53;;;2.47;;
27039;SDS011;14589;51.578;7.306;2022-11-11T07:18:56;5.18;;;2.00;;
27039;SDS011;14589;51.578;7.306;2022-11-11T07:21:41;5.68;;;2.25;;
27039;SDS011;14589;51.578;7.306;2022-11-11T07:24:28;5.45;;;2.35;;
27039;SDS011;14589;51.578;7.306;2022-11-11T07:27:13;7.18;;;2.47;;
27039;SDS011;14589;51.578;7.306;2022-11-11T07:29:57;4.35;;;1.98;;
27039;SDS011;14589;51.578;7.306;2022-11-11T07:32:45;4.95;;;2.25;;
27039;SDS011;14589;51.578;7.306;2022-11-11T07:35:46;3.92;;;2.00;;
27039;SDS011;14589;51.578;7.306;2022-11-11T07:38:37;6.53;;;2.47;;
27039;SDS011;14589;51.578;7.306;2022-11-11T07:41:27;6.72;;;2.20;;
27039;SDS011;14589;51.578;7.306;2022-11-11T07:44:11;5.13;;;2.22;;
27039;SDS011;14589;51.578;7.306;2022-11-11T07:47:03;4.07;;;1.73;;
27039;SDS011;14589;51.578;7.306;2022-11-11T07:49:50;3.30;;;1.90;;
27039;SDS011;14589;51.578;7.306;2022-11-11T07:52:34;2.75;;;1.73;;
27039;SDS011;14589;51.578;7.306;2022-11-11T07:55:40;4.10;;;2.05;;
27039;SDS011;14589;51.578;7.306;2022-11-11T08:01:13;9.77;;;2.28;;
27039;SDS011;14589;51.578;7.306;2022-11-11T08:03:58;4.38;;;1.92;;
27039;SDS011;14589;51.578;7.306;2022-11-11T08:06:42;5.80;;;2.25;;
27039;SDS011;14589;51.578;7.306;2022-11-11T08:09:26;6.88;;;2.30;;
27039;SDS011;14589;51.578;7.306;2022-11-11T08:12:14;4.82;;;1.95;;
27039;SDS011;14589;51.578;7.306;2022-11-11T08:15:21;3.85;;;1.70;;
27039;SDS011;14589;51.578;7.306;2022-11-11T08:18:05;5.28;;;1.80;;
27039;SDS011;14589;51.578;7.306;2022-11-11T08:21:00;6.32;;;2.28;;
27039;SDS011;14589;51.578;7.306;2022-11-11T08:23:54;5.40;;;2.15;;
27039;SDS011;14589;51.578;7.306;2022-11-11T08:26:38;3.88;;;2.00;;
27039;SDS011;14589;51.578;7.306;2022-11-11T08:29:22;5.25;;;2.10;;
27039;SDS011;14589;51.578;7.306;2022-11-11T08:32:06;6.82;;;1.52;;
27039;SDS011;14589;51.578;7.306;2022-11-11T08:34:51;9.90;;;2.70;;
27039;SDS011;14589;51.578;7.306;2022-11-11T08:37:38;8.70;;;1.98;;
27039;SDS011;14589;51.578;7.306;2022-11-11T08:43:11;6.97;;;2.10;;
27039;SDS011;14589;51.578;7.306;2022-11-11T08:46:01;2.00;;;1.80;;
27039;SDS011;14589;51.578;7.306;2022-11-11T08:48:54;2.25;;;1.33;;
27039;SDS011;14589;51.578;7.306;2022-11-11T08:51:38;3.08;;;1.65;;
27039;SDS011;14589;51.578;7.306;2022-11-11T08:54:22;3.38;;;1.50;;
27039;SDS011;14589;51.578;7.306;2022-11-11T08:57:07;5.30;;;1.67;;
27039;SDS011;14589;51.578;7.306;2022-11-11T09:05:28;2.22;;;1.25;;
27039;SDS011;14589;51.578;7.306;2022-11-11T09:08:12;2.95;;;1.17;;
27039;SDS011;14589;51.578;7.306;2022-11-11T09:13:45;2.70;;;1.38;;
27039;SDS011;14589;51.578;7.306;2022-11-11T09:16:30;4.38;;;1.40;;
27039;SDS011;14589;51.578;7.306;2022-11-11T09:19:18;2.92;;;1.45;;
27039;SDS011;14589;51.578;7.306;2022-11-11T09:22:03;2.00;;;1.60;;
27039;SDS011;14589;51.578;7.306;2022-11-11T09:24:53;5.80;;;1.83;;
27039;SDS011;14589;51.578;7.306;2022-11-11T09:27:52;4.03;;;2.22;;
27039;SDS011;14589;51.578;7.306;2022-11-11T09:30:37;2.08;;;1.50;;
27039;SDS011;14589;51.578;7.306;2022-11-11T09:33:21;2.90;;;1.05;;
27039;SDS011;14589;51.578;7.306;2022-11-11T09:36:05;3.90;;;1.20;;
27039;SDS011;14589;51.578;7.306;2022-11-11T09:38:49;2.85;;;1.02;;
27039;SDS011;14589;51.578;7.306;2022-11-11T09:51:31;1.60;;;1.00;;
27039;SDS011;14589;51.578;7.306;2022-11-11T09:54:18;3.38;;;1.13;;
27039;SDS011;14589;51.578;7.306;2022-11-11T09:57:13;3.60;;;1.30;;
27039;SDS011;14589;51.578;7.306;2022-11-11T10:00:03;1.30;;;1.20;;
27039;SDS011;14589;51.578;7.306;2022-11-11T10:02:58;2.67;;;0.95;;
27039;SDS011;14589;51.578;7.306;2022-11-11T10:09:04;4.60;;;1.30;;
27039;SDS011;14589;51.578;7.306;2022-11-11T10:14:53;3.42;;;1.83;;
27039;SDS011;14589;51.578;7.306;2022-11-11T10:20:58;3.10;;;1.30;;
27039;SDS011;14589;51.578;7.306;2022-11-11T10:23:45;4.18;;;1.23;;
27039;SDS011;14589;51.578;7.306;2022-11-11T10:26:35;3.60;;;1.38;;
27039;SDS011;14589;51.578;7.306;2022-11-11T10:29:21;3.45;;;1.20;;
27039;SDS011;14589;51.578;7.306;2022-11-11T10:32:24;2.80;;;1.10;;
27039;SDS011;14589;51.578;7.306;2022-11-11T10:35:21;2.25;;;1.15;;
27039;SDS011;14589;51.578;7.306;2022-11-11T10:40:56;2.63;;;1.27;;
27039;SDS011;14589;51.578;7.306;2022-11-11T10:43:45;2.53;;;1.20;;
27039;SDS011;14589;51.578;7.306;2022-11-11T10:46:38;2.58;;;1.20;;
27039;SDS011;14589;51.578;7.306;2022-11-11T10:49:27;1.60;;;1.20;;
27039;SDS011;14589;51.578;7.306;2022-11-11T10:52:23;3.25;;;1.50;;
27039;SDS011;14589;51.578;7.306;2022-11-11T10:55:30;6.32;;;1.38;;
27039;SDS011;14589;51.578;7.306;2022-11-11T10:58:46;1.75;;;1.20;;
27039;SDS011;14589;51.578;7.306;2022-11-11T11:08:16;3.25;;;1.33;;
27039;SDS011;14589;51.578;7.306;2022-11-11T11:11:16;2.47;;;1.38;;
27039;SDS011;14589;51.578;7.306;2022-11-11T11:17:23;2.05;;;1.20;;
27039;SDS011;14589;51.578;7.306;2022-11-11T11:20:14;2.47;;;1.30;;
27039;SDS011;14589;51.578;7.306;2022-11-11T11:23:02;2.15;;;0.90;;
27039;SDS011;14589;51.578;7.306;2022-11-11T11:25:51;2.60;;;1.38;;
27039;SDS011;14589;51.578;7.306;2022-11-11T11:28:56;2.08;;;1.30;;
27039;SDS011;14589;51.578;7.306;2022-11-11T11:31:43;3.95;;;1.25;;
27039;SDS011;14589;51.578;7.306;2022-11-11T11:34:44;2.55;;;1.13;;
27039;SDS011;14589;51.578;7.306;2022-11-11T11:37:29;2.22;;;1.60;;
27039;SDS011;14589;51.578;7.306;2022-11-11T11:40:15;3.65;;;1.40;;
27039;SDS011;14589;51.578;7.306;2022-11-11T11:43:05;3.38;;;1.52;;
27039;SDS011;14589;51.578;7.306;2022-11-11T11:46:26;2.10;;;1.30;;
27039;SDS011;14589;51.578;7.306;2022-11-11T11:55:21;2.40;;;1.27;;
27039;SDS011;14589;51.578;7.306;2022-11-11T12:14:32;2.60;;;1.17;;
27039;SDS011;14589;51.578;7.306;2022-11-11T12:17:35;1.38;;;1.08;;
27039;SDS011;14589;51.578;7.306;2022-11-11T12:21:13;1.67;;;1.02;;
27039;SDS011;14589;51.578;7.306;2022-11-11T12:30:02;4.28;;;1.17;;
27039;SDS011;14589;51.578;7.306;2022-11-11T12:36:05;2.65;;;0.88;;
27039;SDS011;14589;51.578;7.306;2022-11-11T12:39:08;1.58;;;1.00;;
27039;SDS011;14589;51.578;7.306;2022-11-11T13:00:28;3.83;;;1.33;;
27039;SDS011;14589;51.578;7.306;2022-11-11T13:06:13;5.25;;;1.20;;
27039;SDS011;14589;51.578;7.306;2022-11-11T13:09:25;1.48;;;0.85;;
27039;SDS011;14589;51.578;7.306;2022-11-11T13:15:22;4.85;;;1.10;;
27039;SDS011;14589;51.578;7.306;2022-11-11T13:18:18;2.28;;;0.80;;
27039;SDS011;14589;51.578;7.306;2022-11-11T13:21:07;3.38;;;1.10;;
27039;SDS011;14589;51.578;7.306;2022-11-11T13:23:54;4.20;;;1.63;;
27039;SDS011;14589;51.578;7.306;2022-11-11T13:26:46;2.35;;;1.25;;
27039;SDS011;14589;51.578;7.306;2022-11-11T13:29:40;2.40;;;1.15;;
27039;SDS011;14589;51.578;7.306;2022-11-11T13:32:51;2.35;;;1.17;;
27039;SDS011;14589;51.578;7.306;2022-11-11T13:36:00;6.57;;;1.10;;
27039;SDS011;14589;51.578;7.306;2022-11-11T13:38:47;2.25;;;0.90;;
27039;SDS011;14589;51.578;7.306;2022-11-11T13:41:34;2.80;;;1.27;;
27039;SDS011;14589;51.578;7.306;2022-11-11T13:44:23;1.85;;;1.05;;
27039;SDS011;14589;51.578;7.306;2022-11-11T13:47:23;1.67;;;0.93;;
27039;SDS011;14589;51.578;7.306;2022-11-11T13:50:26;1.42;;;0.80;;
27039;SDS011;14589;51.578;7.306;2022-11-11T13:53:29;2.05;;;1.00;;
27039;SDS011;14589;51.578;7.306;2022-11-11T13:59:19;1.67;;;0.93;;
27039;SDS011;14589;51.578;7.306;2022-11-11T14:16:03;3.13;;;1.20;;
27039;SDS011;14589;51.578;7.306;2022-11-11T14:18:49;2.00;;;0.90;;
27039;SDS011;14589;51.578;7.306;2022-11-11T14:27:29;1.75;;;0.80;;
27039;SDS011;14589;51.578;7.306;2022-11-11T14:30:32;2.90;;;1.00;;
27039;SDS011;14589;51.578;7.306;2022-11-11T14:51:48;1.40;;;0.80;;
27039;SDS011;14589;51.578;7.306;2022-11-11T15:00:47;2.50;;;1.00;;
27039;SDS011;14589;51.578;7.306;2022-11-11T15:03:48;1.70;;;0.90;;
27039;SDS011;14589;51.578;7.306;2022-11-11T15:12:42;1.75;;;1.05;;
27039;SDS011;14589;51.578;7.306;2022-11-11T15:15:46;4.90;;;2.42;;
27039;SDS011;14589;51.578;7.306;2022-11-11T15:37:33;5.68;;;2.30;;
27039;SDS011;14589;51.578;7.306;2022-11-11T15:40:23;11.70;;;4.20;;
27039;SDS011;14589;51.578;7.306;2022-11-11T15:49:11;9.15;;;3.97;;
27039;SDS011;14589;51.578;7.306;2022-11-11T15:52:04;11.38;;;4.15;;
27039;SDS011;14589;51.578;7.306;2022-11-11T15:54:55;8.55;;;3.72;;
27039;SDS011;14589;51.578;7.306;2022-11-11T15:57:43;7.93;;;3.38;;
27039;SDS011;14589;51.578;7.306;2022-11-11T16:00:33;7.70;;;3.38;;
27039;SDS011;14589;51.578;7.306;2022-11-11T16:03:25;6.53;;;3.15;;
27039;SDS011;14589;51.578;7.306;2022-11-11T16:06:13;5.68;;;2.80;;
27039;SDS011;14589;51.578;7.306;2022-11-11T16:08:58;6.85;;;3.70;;
27039;SDS011;14589;51.578;7.306;2022-11-11T16:11:43;6.03;;;2.97;;
27039;SDS011;14589;51.578;7.306;2022-11-11T16:14:30;7.78;;;3.20;;
27039;SDS011;14589;51.578;7.306;2022-11-11T16:17:31;5.80;;;3.15;;
27039;SDS011;14589;51.578;7.306;2022-11-11T16:20:27;5.45;;;2.85;;
27039;SDS011;14589;51.578;7.306;2022-11-11T16:23:18;7.05;;;2.65;;
27039;SDS011;14589;51.578;7.306;2022-11-11T16:26:03;3.90;;;2.22;;
27039;SDS011;14589;51.578;7.306;2022-11-11T16:28:50;3.50;;;2.20;;
27039;SDS011;14589;51.578;7.306;2022-11-11T16:31:37;5.22;;;2.38;;
27039;SDS011;14589;51.578;7.306;2022-11-11T16:37:13;3.30;;;1.95;;
27039;SDS011;14589;51.578;7.306;2022-11-11T16:43:17;5.13;;;2.30;;
27039;SDS011;14589;51.578;7.306;2022-11-11T16:46:07;4.53;;;2.45;;
27039;SDS011;14589;51.578;7.306;2022-11-11T16:48:54;5.22;;;2.47;;
27039;SDS011;14589;51.578;7.306;2022-11-11T16:51:41;4.47;;;2.45;;
27039;SDS011;14589;51.578;7.306;2022-11-11T16:54:34;5.43;;;2.58;;
27039;SDS011;14589;51.578;7.306;2022-11-11T16:57:35;7.32;;;3.22;;
27039;SDS011;14589;51.578;7.306;2022-11-11T17:00:26;6.43;;;2.95;;
27039;SDS011;14589;51.578;7.306;2022-11-11T17:03:27;3.08;;;2.20;;
27039;SDS011;14589;51.578;7.306;2022-11-11T17:06:12;6.93;;;2.90;;
27039;SDS011;14589;51.578;7.306;2022-11-11T17:08:58;7.50;;;2.92;;
27039;SDS011;14589;51.578;7.306;2022-11-11T17:11:42;8.32;;;3.78;;
27039;SDS011;14589;51.578;7.306;2022-11-11T17:14:29;8.65;;;4.75;;
27039;SDS011;14589;51.578;7.306;2022-11-11T17:17:17;13.60;;;5.53;;
27039;SDS011;14589;51.578;7.306;2022-11-11T17:20:05;12.23;;;5.45;;
27039;SDS011;14589;51.578;7.306;2022-11-11T17:22:54;12.82;;;5.50;;
27039;SDS011;14589;51.578;7.306;2022-11-11T17:25:40;11.50;;;5.20;;
27039;SDS011;14589;51.578;7.306;2022-11-11T17:28:26;14.85;;;6.03;;
27039;SDS011;14589;51.578;7.306;2022-11-11T17:31:14;10.85;;;5.00;;
27039;SDS011;14589;51.578;7.306;2022-11-11T17:34:03;14.90;;;5.53;;
27039;SDS011;14589;51.578;7.306;2022-11-11T17:39:39;9.07;;;3.97;;
27039;SDS011;14589;51.578;7.306;2022-11-11T17:42:27;6.75;;;3.72;;
27039;SDS011;14589;51.578;7.306;2022-11-11T17:45:12;9.02;;;3.72;;
27039;SDS011;14589;51.578;7.306;2022-11-11T17:47:58;7.75;;;3.70;;
27039;SDS011;14589;51.578;7.306;2022-11-11T17:50:45;5.85;;;3.15;;
27039;SDS011;14589;51.578;7.306;2022-11-11T17:53:32;5.45;;;3.00;;
27039;SDS011;14589;51.578;7.306;2022-11-11T17:56:17;5.07;;;3.00;;
27039;SDS011;14589;51.578;7.306;2022-11-11T17:59:02;4.85;;;2.65;;
27039;SDS011;14589;51.578;7.306;2022-11-11T18:01:46;5.45;;;2.72;;
27039;SDS011;14589;51.578;7.306;2022-11-11T18:04:35;6.45;;;2.45;;
27039;SDS011;14589;51.578;7.306;2022-11-11T18:07:19;5.05;;;2.60;;
27039;SDS011;14589;51.578;7.306;2022-11-11T18:10:04;5.22;;;2.40;;
27039;SDS011;14589;51.578;7.306;2022-11-11T18:12:48;3.63;;;2.20;;
27039;SDS011;14589;51.578;7.306;2022-11-11T18:15:33;4.72;;;2.45;;
27039;SDS011;14589;51.578;7.306;2022-11-11T18:21:05;6.93;;;2.55;;
27039;SDS011;14589;51.578;7.306;2022-11-11T18:23:55;8.35;;;3.05;;
27039;SDS011;14589;51.578;7.306;2022-11-11T18:26:41;7.30;;;3.88;;
27039;SDS011;14589;51.578;7.306;2022-11-11T18:29:25;8.98;;;3.53;;
27039;SDS011;14589;51.578;7.306;2022-11-11T18:32:11;6.05;;;3.30;;
27039;SDS011;14589;51.578;7.306;2022-11-11T18:35:02;7.97;;;4.05;;
27039;SDS011;14589;51.578;7.306;2022-11-11T18:37:47;6.93;;;3.60;;
27039;SDS011;14589;51.578;7.306;2022-11-11T18:40:31;7.30;;;3.33;;
27039;SDS011;14589;51.578;7.306;2022-11-11T18:43:15;6.15;;;3.22;;
27039;SDS011;14589;51.578;7.306;2022-11-11T18:46:04;6.18;;;3.38;;
27039;SDS011;14589;51.578;7.306;2022-11-11T18:48:55;6.70;;;3.78;;
27039;SDS011;14589;51.578;7.306;2022-11-11T18:51:43;5.40;;;3.00;;
27039;SDS011;14589;51.578;7.306;2022-11-11T18:54:28;8.15;;;4.15;;
27039;SDS011;14589;51.578;7.306;2022-11-11T18:57:12;5.80;;;3.90;;
27039;SDS011;14589;51.578;7.306;2022-11-11T18:59:57;8.57;;;4.00;;
27039;SDS011;14589;51.578;7.306;2022-11-11T19:02:41;8.52;;;4.18;;
27039;SDS011;14589;51.578;7.306;2022-11-11T19:05:25;8.80;;;3.75;;
27039;SDS011;14589;51.578;7.306;2022-11-11T19:08:10;7.57;;;3.53;;
27039;SDS011;14589;51.578;7.306;2022-11-11T19:10:54;8.05;;;3.47;;
27039;SDS011;14589;51.578;7.306;2022-11-11T19:13:45;5.93;;;3.60;;
27039;SDS011;14589;51.578;7.306;2022-11-11T19:16:31;9.50;;;4.60;;
27039;SDS011;14589;51.578;7.306;2022-11-11T19:19:16;7.70;;;3.90;;
27039;SDS011;14589;51.578;7.306;2022-11-11T19:24:51;8.57;;;4.32;;
27039;SDS011;14589;51.578;7.306;2022-11-11T19:27:34;7.97;;;4.88;;
27039;SDS011;14589;51.578;7.306;2022-11-11T19:30:19;7.03;;;4.32;;
27039;SDS011;14589;51.578;7.306;2022-11-11T19:33:03;9.15;;;4.65;;
27039;SDS011;14589;51.578;7.306;2022-11-11T19:36:02;10.02;;;4.78;;
27039;SDS011;14589;51.578;7.306;2022-11-11T19:38:47;12.00;;;5.35;;
27039;SDS011;14589;51.578;7.306;2022-11-11T19:44:18;11.60;;;5.47;;
27039;SDS011;14589;51.578;7.306;2022-11-11T19:47:03;10.88;;;5.68;;
27039;SDS011;14589;51.578;7.306;2022-11-11T19:49:57;11.82;;;5.63;;
27039;SDS011;14589;51.578;7.306;2022-11-11T19:52:44;11.90;;;5.80;;
27039;SDS011;14589;51.578;7.306;2022-11-11T19:55:29;11.80;;;5.70;;
27039;SDS011;14589;51.578;7.306;2022-11-11T19:58:13;12.70;;;6.25;;
27039;SDS011;14589;51.578;7.306;2022-11-11T20:01:05;11.65;;;5.82;;
27039;SDS011;14589;51.578;7.306;2022-11-11T20:03:57;12.13;;;5.95;;
27039;SDS011;14589;51.578;7.306;2022-11-11T20:06:41;14.55;;;7.13;;
27039;SDS011;14589;51.578;7.306;2022-11-11T20:09:32;12.77;;;6.30;;
27039;SDS011;14589;51.578;7.306;2022-11-11T20:12:18;12.25;;;6.75;;
27039;SDS011;14589;51.578;7.306;2022-11-11T20:15:05;21.45;;;8.13;;
27039;SDS011;14589;51.578;7.306;2022-11-11T20:17:52;15.20;;;7.03;;
27039;SDS011;14589;51.578;7.306;2022-11-11T20:20:37;22.15;;;8.98;;
27039;SDS011;14589;51.578;7.306;2022-11-11T20:23:21;16.80;;;7.97;;
27039;SDS011;14589;51.578;7.306;2022-11-11T20:26:08;26.85;;;11.38;;
27039;SDS011;14589;51.578;7.306;2022-11-11T20:29:00;21.23;;;9.48;;
27039;SDS011;14589;51.578;7.306;2022-11-11T20:31:44;25.63;;;10.88;;
27039;SDS011;14589;51.578;7.306;2022-11-11T20:37:14;20.35;;;10.50;;
27039;SDS011;14589;51.578;7.306;2022-11-11T20:39:59;27.13;;;11.68;;
27039;SDS011;14589;51.578;7.306;2022-11-11T20:42:43;22.52;;;10.30;;
27039;SDS011;14589;51.578;7.306;2022-11-11T20:45:36;25.02;;;12.27;;
27039;SDS011;14589;51.578;7.306;2022-11-11T20:48:23;27.35;;;13.90;;
27039;SDS011;14589;51.578;7.306;2022-11-11T20:51:11;31.00;;;14.50;;
27039;SDS011;14589;51.578;7.306;2022-11-11T20:53:59;31.60;;;14.00;;
27039;SDS011;14589;51.578;7.306;2022-11-11T20:56:44;36.30;;;14.95;;
27039;SDS011;14589;51.578;7.306;2022-11-11T20:59:32;39.28;;;16.00;;